createdAt,value
2022-11-28T00:00:47.836Z,4.61
2022-11-28T00:01:48.884Z,4.5
2022-11-28T00:02:50.227Z,4.53
2022-11-28T00:03:50.132Z,4.43
2022-11-28T00:04:51.185Z,4.3
2022-11-28T00:05:53.157Z,4.28
2022-11-28T00:06:51.934Z,4.14
2022-11-28T00:07:52.813Z,4.18
2022-11-28T00:08:53.473Z,4.1
2022-11-28T00:09:54.113Z,4.1
2022-11-28T00:10:55.187Z,4.1
2022-11-28T00:11:55.466Z,3.95
2022-11-28T00:12:55.962Z,4
2022-11-28T00:13:55.887Z,3.95
2022-11-28T00:14:56.819Z,3.96
2022-11-28T00:15:57.558Z,3.94
2022-11-28T00:16:57.913Z,3.89
2022-11-28T00:17:59.068Z,3.95
2022-11-28T00:18:58.967Z,3.96
2022-11-28T00:20:00.184Z,3.91
2022-11-28T00:21:00.274Z,3.86
2022-11-28T00:22:00.991Z,3.84
2022-11-28T00:23:01.193Z,3.78
2022-11-28T00:24:01.531Z,3.81
2022-11-28T00:25:02.735Z,3.76
2022-11-28T00:26:02.363Z,3.74
2022-11-28T00:27:03.548Z,3.7
2022-11-28T00:28:03.884Z,3.7
2022-11-28T00:29:05.369Z,3.7
2022-11-28T00:30:05.860Z,3.68
2022-11-28T00:31:06.506Z,3.7
2022-11-28T00:32:06.961Z,3.73
2022-11-28T00:33:07.312Z,3.73
2022-11-28T00:34:07.508Z,3.76
2022-11-28T00:35:07.418Z,3.86
2022-11-28T00:36:07.750Z,3.88
2022-11-28T00:37:07.867Z,3.86
2022-11-28T00:38:08.785Z,3.88
2022-11-28T00:39:08.711Z,3.86
2022-11-28T00:40:09.345Z,3.86
2022-11-28T00:41:09.589Z,3.82
2022-11-28T00:42:10.218Z,3.92
2022-11-28T00:43:11.147Z,3.86
2022-11-28T00:44:12.079Z,3.94
2022-11-28T00:45:12.968Z,3.92
2022-11-28T00:46:14.690Z,3.92
2022-11-28T00:47:15.062Z,3.95
2022-11-28T00:48:15.195Z,3.96
2022-11-28T00:49:15.386Z,3.95
2022-11-28T00:50:16.673Z,3.95
2022-11-28T00:51:16.181Z,3.96
2022-11-28T00:52:16.591Z,3.95
2022-11-28T00:53:17.490Z,3.95
2022-11-28T00:54:17.838Z,3.95
2022-11-28T00:55:19.020Z,4.02
2022-11-28T00:56:19.228Z,3.92
2022-11-28T00:57:19.438Z,3.89
2022-11-28T00:58:19.653Z,3.89
2022-11-28T00:59:19.965Z,3.82
2022-11-28T01:00:20.638Z,3.84
2022-11-28T01:01:21.282Z,3.78
2022-11-28T01:02:21.618Z,3.7
2022-11-28T01:03:21.625Z,3.73
2022-11-28T01:04:22.249Z,3.67
2022-11-28T01:05:23.176Z,3.66
2022-11-28T01:06:23.083Z,3.68
2022-11-28T01:07:24.424Z,3.73
2022-11-28T01:08:24.776Z,3.68
2022-11-28T01:09:24.984Z,3.74
2022-11-28T01:10:24.914Z,3.73
2022-11-28T01:11:25.428Z,3.74
2022-11-28T01:12:26.335Z,3.71
2022-11-28T01:13:26.536Z,3.71
2022-11-28T01:14:26.727Z,3.88
2022-11-28T01:15:27.636Z,3.89
2022-11-28T01:16:28.992Z,3.88
2022-11-28T01:17:29.067Z,3.85
2022-11-28T01:18:30.529Z,3.94
2022-11-28T01:19:30.999Z,3.91
2022-11-28T01:20:30.893Z,3.88
2022-11-28T01:21:32.009Z,3.95
2022-11-28T01:22:32.708Z,3.99
2022-11-28T01:23:33.617Z,4
2022-11-28T01:24:33.830Z,4.04
2022-11-28T01:25:34.747Z,4.14
2022-11-28T01:26:34.945Z,4.06
2022-11-28T01:27:35.127Z,4.09
2022-11-28T01:28:36.317Z,4.12
2022-11-28T01:29:36.205Z,4.06
2022-11-28T01:30:37.118Z,4.07
2022-11-28T01:31:38.470Z,4.07
2022-11-28T01:32:38.265Z,4.07
2022-11-28T01:33:39.412Z,4.1
2022-11-28T01:34:40.111Z,4.03
2022-11-28T01:35:40.418Z,4.03
2022-11-28T01:36:41.032Z,4.16
2022-11-28T01:37:41.434Z,4.14
2022-11-28T01:38:42.623Z,4.18
2022-11-28T01:39:42.970Z,4.16
2022-11-28T01:40:43.578Z,4.3
2022-11-28T01:41:44.393Z,4.34
2022-11-28T01:42:45.005Z,4.45
2022-11-28T01:43:46.489Z,4.49
2022-11-28T01:44:47.469Z,4.52
2022-11-28T01:45:47.107Z,4.48
2022-11-28T01:46:48.116Z,4.58
2022-11-28T01:47:48.291Z,4.63
2022-11-28T01:48:48.432Z,4.64
2022-11-28T01:49:48.338Z,4.64
2022-11-28T01:50:49.241Z,4.56
2022-11-28T01:51:49.340Z,4.56
2022-11-28T01:52:49.469Z,4.49
2022-11-28T01:53:50.099Z,4.48
2022-11-28T01:54:50.712Z,4.46
2022-11-28T01:55:50.616Z,4.38
2022-11-28T01:56:51.837Z,4.31
2022-11-28T01:57:52.020Z,4.31
2022-11-28T01:58:52.933Z,4.25
2022-11-28T01:59:53.548Z,4.22
2022-11-28T02:00:54.723Z,4.18
2022-11-28T02:01:55.347Z,4.25
2022-11-28T02:02:55.589Z,4.27
2022-11-28T02:03:56.025Z,4.3
2022-11-28T02:04:56.225Z,4.32
2022-11-28T02:05:56.856Z,4.38
2022-11-28T02:06:57.038Z,4.36
2022-11-28T02:07:57.404Z,4.34
2022-11-28T02:08:57.621Z,4.32
2022-11-28T02:09:58.845Z,4.5
2022-11-28T02:10:58.722Z,4.56
2022-11-28T02:11:59.801Z,4.48
2022-11-28T02:13:00.534Z,4.53
2022-11-28T02:14:01.721Z,4.6
2022-11-28T02:15:01.344Z,4.53
2022-11-28T02:16:02.504Z,4.66
2022-11-28T02:17:02.925Z,4.71
2022-11-28T02:18:03.108Z,4.68
2022-11-28T02:19:03.527Z,4.74
2022-11-28T02:20:03.426Z,4.79
2022-11-28T02:21:03.916Z,4.84
2022-11-28T02:22:04.700Z,4.84
2022-11-28T02:23:04.817Z,4.75
2022-11-28T02:24:06.025Z,4.86
2022-11-28T02:25:06.364Z,4.82
2022-11-28T02:26:07.613Z,4.79
2022-11-28T02:27:08.106Z,4.76
2022-11-28T02:28:08.589Z,4.82
2022-11-28T02:29:08.909Z,4.79
2022-11-28T02:30:09.830Z,4.82
2022-11-28T02:31:10.891Z,4.68
2022-11-28T02:32:11.236Z,4.75
2022-11-28T02:33:12.138Z,4.82
2022-11-28T02:34:12.291Z,4.82
2022-11-28T02:35:12.476Z,4.79
2022-11-28T02:36:12.668Z,4.76
2022-11-28T02:37:13.286Z,4.83
2022-11-28T02:38:13.697Z,4.89
2022-11-28T02:39:14.613Z,4.86
2022-11-28T02:40:15.544Z,4.86
2022-11-28T02:41:16.455Z,4.84
2022-11-28T02:42:16.596Z,4.86
2022-11-28T02:43:16.803Z,4.87
2022-11-28T02:44:17.693Z,4.94
2022-11-28T02:45:18.303Z,4.82
2022-11-28T02:46:19.585Z,4.92
2022-11-28T02:47:19.940Z,4.97
2022-11-28T02:48:20.258Z,4.87
2022-11-28T02:49:21.691Z,4.9
2022-11-28T02:50:21.863Z,4.94
2022-11-28T02:51:22.356Z,4.82
2022-11-28T02:52:22.590Z,4.87
2022-11-28T02:53:23.908Z,4.89
2022-11-28T02:54:23.534Z,4.95
2022-11-28T02:55:23.897Z,4.84
2022-11-28T02:56:25.104Z,4.87
2022-11-28T02:57:25.434Z,4.83
2022-11-28T02:58:26.922Z,4.9
2022-11-28T02:59:27.411Z,4.86
2022-11-28T03:00:27.755Z,4.79
2022-11-28T03:01:28.021Z,4.74
2022-11-28T03:02:29.331Z,4.7
2022-11-28T03:03:28.743Z,4.66
2022-11-28T03:04:29.882Z,4.71
2022-11-28T03:05:29.907Z,4.71
2022-11-28T03:06:29.835Z,4.76
2022-11-28T03:07:30.260Z,4.71
2022-11-28T03:08:30.209Z,4.78
2022-11-28T03:09:30.539Z,4.84
2022-11-28T03:10:31.733Z,4.78
2022-11-28T03:11:31.647Z,4.83
2022-11-28T03:12:32.463Z,4.86
2022-11-28T03:13:33.041Z,4.87
2022-11-28T03:14:33.530Z,4.92
2022-11-28T03:15:33.617Z,4.87
2022-11-28T03:16:34.479Z,5.05
2022-11-28T03:17:35.024Z,4.92
2022-11-28T03:18:35.934Z,4.94
2022-11-28T03:19:36.788Z,5
2022-11-28T03:20:36.707Z,5.1
2022-11-28T03:21:37.894Z,5.02
2022-11-28T03:22:38.162Z,5.02
2022-11-28T03:23:38.573Z,5.12
2022-11-28T03:24:39.313Z,5.04
2022-11-28T03:25:39.334Z,5.1
2022-11-28T03:26:40.522Z,5.01
2022-11-28T03:27:41.157Z,5.07
2022-11-28T03:28:48.004Z,5.04
2022-11-28T03:29:41.625Z,5.05
2022-11-28T03:30:41.961Z,4.98
2022-11-28T03:31:42.874Z,4.92
2022-11-28T03:32:43.333Z,5.02
2022-11-28T03:33:44.249Z,4.9
2022-11-28T03:34:45.372Z,4.87
2022-11-28T03:35:45.273Z,4.79
2022-11-28T03:36:45.462Z,4.83
2022-11-28T03:37:45.392Z,4.71
2022-11-28T03:38:46.091Z,4.63
2022-11-28T03:39:46.587Z,4.53
2022-11-28T03:40:46.784Z,4.53
2022-11-28T03:41:46.966Z,4.56
2022-11-28T03:42:47.772Z,4.53
2022-11-28T03:43:48.364Z,4.63
2022-11-28T03:44:49.672Z,4.56
2022-11-28T03:45:49.867Z,4.6
2022-11-28T03:46:50.174Z,4.64
2022-11-28T03:47:50.807Z,4.7
2022-11-28T03:48:51.455Z,4.7
2022-11-28T03:49:52.511Z,4.74
2022-11-28T03:50:52.994Z,4.64
2022-11-28T03:51:53.203Z,4.7
2022-11-28T03:52:54.018Z,4.71
2022-11-28T03:53:54.447Z,4.63
2022-11-28T03:54:55.083Z,4.67
2022-11-28T03:55:55.887Z,4.68
2022-11-28T03:56:56.296Z,4.7
2022-11-28T03:57:57.205Z,4.78
2022-11-28T03:58:58.461Z,4.83
2022-11-28T03:59:58.666Z,4.87
2022-11-28T04:00:59.473Z,4.86
2022-11-28T04:01:59.710Z,4.92
2022-11-28T04:03:00.801Z,4.87
2022-11-28T04:04:00.345Z,5.02
2022-11-28T04:05:01.486Z,5
2022-11-28T04:06:01.118Z,5.02
2022-11-28T04:07:02.304Z,5.05
2022-11-28T04:08:02.825Z,5.04
2022-11-28T04:09:03.572Z,5.05
2022-11-28T04:10:03.631Z,5.1
2022-11-28T04:11:03.970Z,5.1
2022-11-28T04:12:05.180Z,5.02
2022-11-28T04:13:05.417Z,5.05
2022-11-28T04:14:06.329Z,5.13
2022-11-28T04:15:06.520Z,5.1
2022-11-28T04:16:06.824Z,5.13
2022-11-28T04:17:06.997Z,5.15
2022-11-28T04:18:08.320Z,5.18
2022-11-28T04:19:07.940Z,5.12
2022-11-28T04:20:09.379Z,5.13
2022-11-28T04:21:09.589Z,5.23
2022-11-28T04:22:09.497Z,5.19
2022-11-28T04:23:10.323Z,5.29
2022-11-28T04:24:10.739Z,5.2
2022-11-28T04:25:11.676Z,5.2
2022-11-28T04:26:11.890Z,5.13
2022-11-28T04:27:12.800Z,5.07
2022-11-28T04:28:13.690Z,5.02
2022-11-28T04:29:13.598Z,4.84
2022-11-28T04:30:14.506Z,4.9
2022-11-28T04:31:15.629Z,4.86
2022-11-28T04:32:16.679Z,4.86
2022-11-28T04:33:16.607Z,4.87
2022-11-28T04:34:17.197Z,4.87
2022-11-28T04:35:18.095Z,4.78
2022-11-28T04:36:17.998Z,4.83
2022-11-28T04:37:19.194Z,4.89
2022-11-28T04:38:19.677Z,4.87
2022-11-28T04:39:20.100Z,4.79
2022-11-28T04:40:21.288Z,4.86
2022-11-28T04:41:21.192Z,4.84
2022-11-28T04:42:22.111Z,4.78
2022-11-28T04:43:22.948Z,4.84
2022-11-28T04:44:23.447Z,4.82
2022-11-28T04:45:23.784Z,4.82
2022-11-28T04:46:25.367Z,4.64
2022-11-28T04:47:26.035Z,4.64
2022-11-28T04:48:34.375Z,4.7
2022-11-28T04:49:26.966Z,4.67
2022-11-28T04:50:28.110Z,4.75
2022-11-28T04:51:28.736Z,4.74
2022-11-28T04:52:28.647Z,4.7
2022-11-28T04:53:30.039Z,4.7
2022-11-28T04:54:30.450Z,4.67
2022-11-28T04:55:30.545Z,4.7
2022-11-28T04:56:31.737Z,4.66
2022-11-28T04:57:32.379Z,4.66
2022-11-28T04:58:33.629Z,4.68
2022-11-28T04:59:33.547Z,4.57
2022-11-28T05:00:34.591Z,4.68
2022-11-28T05:01:36.139Z,4.6
2022-11-28T05:02:36.068Z,4.6
2022-11-28T05:03:43.060Z,4.52
2022-11-28T05:04:37.701Z,4.53
2022-11-28T05:05:38.187Z,4.46
2022-11-28T05:06:38.100Z,4.49
2022-11-28T05:07:39.221Z,4.48
2022-11-28T05:08:39.905Z,4.45
2022-11-28T05:09:40.608Z,4.36
2022-11-28T05:10:40.506Z,4.25
2022-11-28T05:11:41.119Z,4.25
2022-11-28T05:12:42.027Z,4.13
2022-11-28T05:13:43.393Z,4.1
2022-11-28T05:14:44.102Z,4
2022-11-28T05:15:43.831Z,3.91
2022-11-28T05:16:44.676Z,3.84
2022-11-28T05:17:47.985Z,3.76
2022-11-28T05:18:46.207Z,3.71
2022-11-28T05:19:46.141Z,3.71
2022-11-28T05:20:46.995Z,3.67
2022-11-28T05:21:46.905Z,3.7
2022-11-28T05:22:48.111Z,3.61
2022-11-28T05:23:47.925Z,3.66
2022-11-28T05:24:48.078Z,3.73
2022-11-28T05:25:48.707Z,3.7
2022-11-28T05:26:49.899Z,3.59
2022-11-28T05:27:50.536Z,3.63
2022-11-28T05:28:50.892Z,3.7
2022-11-28T05:29:57.992Z,3.73
2022-11-28T05:30:52.904Z,3.73
2022-11-28T05:31:53.392Z,3.61
2022-11-28T05:32:53.508Z,3.67
2022-11-28T05:33:54.152Z,3.68
2022-11-28T05:34:55.333Z,3.74
2022-11-28T05:35:55.454Z,3.74
2022-11-28T05:36:55.361Z,3.77
2022-11-28T05:37:55.698Z,3.73
2022-11-28T05:38:56.073Z,3.68
2022-11-28T05:39:56.100Z,3.64
2022-11-28T05:40:57.303Z,3.64
2022-11-28T05:41:58.296Z,3.68
2022-11-28T05:42:58.504Z,3.68
2022-11-28T05:43:59.335Z,3.78
2022-11-28T05:44:59.246Z,3.71
2022-11-28T05:46:00.198Z,3.74
2022-11-28T05:47:01.018Z,3.71
2022-11-28T05:48:01.217Z,3.64
2022-11-28T05:49:01.814Z,3.66
2022-11-28T05:50:01.731Z,3.73
2022-11-28T05:51:02.906Z,3.7
2022-11-28T05:52:03.103Z,3.59
2022-11-28T05:53:03.311Z,3.55
2022-11-28T05:54:03.694Z,3.58
2022-11-28T05:55:03.820Z,3.45
2022-11-28T05:56:04.734Z,3.55
2022-11-28T05:57:05.068Z,3.49
2022-11-28T05:58:05.984Z,3.56
2022-11-28T05:59:06.190Z,3.52
2022-11-28T06:00:06.816Z,3.56
2022-11-28T06:01:07.417Z,3.67
2022-11-28T06:02:08.439Z,3.55
2022-11-28T06:03:08.952Z,3.55
2022-11-28T06:04:10.055Z,3.56
2022-11-28T06:05:44.113Z,3.49
2022-11-28T06:06:10.502Z,3.55
2022-11-28T06:07:10.156Z,3.58
2022-11-28T06:08:11.189Z,3.53
2022-11-28T06:09:12.095Z,3.56
2022-11-28T06:10:12.838Z,3.63
2022-11-28T06:11:13.733Z,3.55
2022-11-28T06:12:14.630Z,3.55
2022-11-28T06:13:15.559Z,3.61
2022-11-28T06:14:16.665Z,3.68
2022-11-28T06:15:17.256Z,3.74
2022-11-28T06:16:17.494Z,3.68
2022-11-28T06:17:17.622Z,3.73
2022-11-28T06:18:17.818Z,3.85
2022-11-28T06:19:18.755Z,3.89
2022-11-28T06:20:18.948Z,3.86
2022-11-28T06:21:20.086Z,3.94
2022-11-28T06:22:19.986Z,4.12
2022-11-28T06:23:20.876Z,4.09
2022-11-28T06:24:21.874Z,4.13
2022-11-28T06:25:22.280Z,4.2
2022-11-28T06:26:22.894Z,4.2
2022-11-28T06:27:23.575Z,4.21
2022-11-28T06:28:24.466Z,4.34
2022-11-28T06:29:24.380Z,4.52
2022-11-28T06:30:25.598Z,4.52
2022-11-28T06:31:25.697Z,4.5
2022-11-28T06:32:27.969Z,4.56
2022-11-28T06:33:26.184Z,4.56
2022-11-28T06:34:26.707Z,4.57
2022-11-28T06:35:26.891Z,4.66
2022-11-28T06:36:27.622Z,4.68
2022-11-28T06:37:27.518Z,4.67
2022-11-28T06:38:27.150Z,4.7
2022-11-28T06:39:27.750Z,4.67
2022-11-28T06:40:28.457Z,4.71
2022-11-28T06:41:28.671Z,4.74
2022-11-28T06:42:28.992Z,4.74
2022-11-28T06:43:30.210Z,4.67
2022-11-28T06:44:30.310Z,4.71
2022-11-28T06:45:31.077Z,4.71
2022-11-28T06:46:31.391Z,4.71
2022-11-28T06:47:31.342Z,4.67
2022-11-28T06:48:32.282Z,4.75
2022-11-28T06:49:33.294Z,4.64
2022-11-28T06:50:33.649Z,4.53
2022-11-28T06:51:35.529Z,4.57
2022-11-28T06:52:35.727Z,4.66
2022-11-28T06:53:37.182Z,4.57
2022-11-28T06:54:37.295Z,4.61
2022-11-28T06:55:37.422Z,4.64
2022-11-28T06:56:38.759Z,4.7
2022-11-28T06:57:39.070Z,4.63
2022-11-28T06:58:39.319Z,4.71
2022-11-28T06:59:40.535Z,4.58
2022-11-28T07:00:41.535Z,4.63
2022-11-28T07:01:41.298Z,4.67
2022-11-28T07:02:41.832Z,4.61
2022-11-28T07:03:41.651Z,4.64
2022-11-28T07:04:42.575Z,4.71
2022-11-28T07:05:42.786Z,4.74
2022-11-28T07:06:43.506Z,4.71
2022-11-28T07:07:59.211Z,4.83
2022-11-28T07:08:43.708Z,4.82
2022-11-28T07:09:45.596Z,4.87
2022-11-28T07:10:45.169Z,4.82
2022-11-28T07:11:45.796Z,4.89
2022-11-28T07:12:46.757Z,5.01
2022-11-28T07:13:47.693Z,5
2022-11-28T07:14:47.563Z,5.01
2022-11-28T07:15:48.459Z,5.13
2022-11-28T07:16:49.455Z,5.16
2022-11-28T07:17:49.597Z,5.18
2022-11-28T07:18:50.510Z,5.25
2022-11-28T07:19:55.854Z,5.34
2022-11-28T07:20:51.076Z,5.43
2022-11-28T07:21:52.514Z,5.51
2022-11-28T07:22:52.993Z,5.49
2022-11-28T07:23:52.906Z,5.59
2022-11-28T07:24:53.630Z,5.58
2022-11-28T07:25:53.762Z,5.69
2022-11-28T07:26:54.677Z,5.77
2022-11-28T07:27:54.653Z,5.88
2022-11-28T07:28:55.131Z,5.97
2022-11-28T07:29:55.452Z,5.95
2022-11-28T07:30:56.345Z,6.05
2022-11-28T07:31:57.423Z,5.94
2022-11-28T07:32:58.269Z,6.19
2022-11-28T07:33:58.922Z,6.19
2022-11-28T07:34:59.176Z,6.17
2022-11-28T07:36:00.093Z,6.31
2022-11-28T07:37:00.801Z,6.28
2022-11-28T07:38:00.678Z,6.34
2022-11-28T07:39:00.879Z,6.39
2022-11-28T07:40:01.362Z,6.35
2022-11-28T07:41:02.071Z,6.49
2022-11-28T07:42:01.987Z,6.46
2022-11-28T07:43:03.300Z,6.46
2022-11-28T07:44:03.795Z,6.59
2022-11-28T07:45:04.504Z,6.6
2022-11-28T07:46:07.327Z,6.59
2022-11-28T07:47:05.998Z,6.67
2022-11-28T07:48:05.956Z,6.6
2022-11-28T07:49:06.174Z,6.6
2022-11-28T07:50:06.690Z,6.64
2022-11-28T07:51:06.882Z,6.64
2022-11-28T07:52:07.537Z,6.54
2022-11-28T07:53:12.832Z,6.44
2022-11-28T07:54:08.221Z,6.47
2022-11-28T07:55:09.235Z,6.52
2022-11-28T07:56:09.762Z,6.38
2022-11-28T07:57:18.887Z,6.39
2022-11-28T07:58:10.538Z,6.39
2022-11-28T07:59:11.005Z,6.19
2022-11-28T08:00:11.916Z,6.1
2022-11-28T08:01:13.274Z,5.98
2022-11-28T08:02:13.451Z,6.09
2022-11-28T08:03:13.648Z,5.94
2022-11-28T08:04:15.056Z,6.02
2022-11-28T08:05:15.815Z,5.94
2022-11-28T08:06:16.060Z,5.8
2022-11-28T08:07:17.148Z,5.59
2022-11-28T08:08:16.917Z,5.58
2022-11-28T08:09:18.404Z,5.38
2022-11-28T08:10:18.610Z,5.37
2022-11-28T08:11:19.193Z,5.31
2022-11-28T08:12:19.816Z,5.13
2022-11-28T08:13:20.483Z,5.07
2022-11-28T08:14:20.413Z,5.1
2022-11-28T08:15:21.694Z,5.04
2022-11-28T08:16:22.352Z,5.02
2022-11-28T08:17:22.465Z,5.08
2022-11-28T08:18:23.651Z,5.15
2022-11-28T08:19:35.449Z,5.18
2022-11-28T08:20:25.328Z,5.2
2022-11-28T08:21:25.886Z,5.25
2022-11-28T08:22:26.119Z,5.23
2022-11-28T08:23:26.604Z,5.29
2022-11-28T08:24:27.521Z,5.33
2022-11-28T08:25:27.705Z,5.37
2022-11-28T08:26:34.430Z,5.36
2022-11-28T08:27:29.030Z,5.43
2022-11-28T08:28:29.991Z,5.4
2022-11-28T08:29:30.947Z,5.44
2022-11-28T08:30:31.993Z,5.49
2022-11-28T08:31:32.024Z,5.49
2022-11-28T08:32:33.214Z,5.55
2022-11-28T08:33:33.847Z,5.46
2022-11-28T08:34:34.336Z,5.55
2022-11-28T08:35:35.341Z,5.52
2022-11-28T08:36:35.602Z,5.54
2022-11-28T08:37:36.163Z,5.64
2022-11-28T08:38:36.260Z,5.61
2022-11-28T08:39:36.285Z,5.61
2022-11-28T08:40:36.936Z,5.64
2022-11-28T08:41:36.933Z,5.59
2022-11-28T08:42:37.851Z,5.58
2022-11-28T08:43:39.345Z,5.67
2022-11-28T08:44:39.885Z,5.74
2022-11-28T08:45:40.804Z,5.76
2022-11-28T08:46:41.392Z,5.8
2022-11-28T08:47:41.335Z,5.87
2022-11-28T08:48:42.264Z,5.8
2022-11-28T08:49:43.955Z,5.76
2022-11-28T08:50:48.425Z,5.73
2022-11-28T08:51:44.326Z,5.76
2022-11-28T08:52:45.592Z,5.61
2022-11-28T08:53:49.748Z,5.61
2022-11-28T08:54:46.506Z,5.62
2022-11-28T08:55:47.739Z,5.61
2022-11-28T08:56:47.951Z,5.56
2022-11-28T08:57:48.167Z,5.46
2022-11-28T08:58:48.368Z,5.46
2022-11-28T08:59:49.298Z,5.51
2022-11-28T09:00:49.254Z,5.58
2022-11-28T09:01:50.819Z,5.61
2022-11-28T09:02:50.510Z,5.73
2022-11-28T09:03:52.215Z,5.72
2022-11-28T09:04:52.403Z,5.73
2022-11-28T09:05:53.131Z,5.81
2022-11-28T09:06:53.077Z,5.81
2022-11-28T09:07:54.159Z,5.91
2022-11-28T09:08:54.148Z,5.94
2022-11-28T09:09:55.251Z,5.88
2022-11-28T09:10:55.449Z,5.94
2022-11-28T09:11:55.967Z,6.02
2022-11-28T09:12:56.464Z,6.09
2022-11-28T09:13:57.128Z,6.05
2022-11-28T09:14:56.773Z,5.99
2022-11-28T09:15:59.224Z,6.13
2022-11-28T09:16:59.141Z,6.17
2022-11-28T09:17:58.836Z,6.17
2022-11-28T09:18:58.730Z,6.16
2022-11-28T09:19:59.855Z,6.13
2022-11-28T09:21:00.090Z,6.19
2022-11-28T09:22:03.591Z,6.25
2022-11-28T09:23:01.872Z,6.28
2022-11-28T09:24:01.781Z,6.22
2022-11-28T09:25:02.706Z,6.34
2022-11-28T09:26:03.069Z,6.25
2022-11-28T09:27:03.300Z,6.34
2022-11-28T09:28:03.809Z,6.36
2022-11-28T09:29:04.088Z,6.35
2022-11-28T09:30:04.011Z,6.38
2022-11-28T09:31:05.023Z,6.39
2022-11-28T09:32:05.852Z,6.36
2022-11-28T09:33:06.838Z,6.41
2022-11-28T09:34:07.139Z,6.49
2022-11-28T09:35:07.088Z,6.5
2022-11-28T09:36:08.166Z,6.46
2022-11-28T09:37:11.084Z,6.65
2022-11-28T09:38:09.652Z,6.64
2022-11-28T09:39:09.860Z,6.59
2022-11-28T09:40:20.576Z,6.68
2022-11-28T09:41:10.297Z,6.7
2022-11-28T09:42:10.820Z,6.71
2022-11-28T09:43:10.755Z,6.8
2022-11-28T09:44:11.666Z,6.7
2022-11-28T09:45:12.311Z,6.8
2022-11-28T09:46:12.631Z,6.86
2022-11-28T09:47:13.251Z,6.8
2022-11-28T09:48:14.442Z,6.87
2022-11-28T09:49:14.334Z,6.96
2022-11-28T09:50:14.831Z,6.85
2022-11-28T09:51:15.355Z,6.93
2022-11-28T09:52:15.732Z,6.87
2022-11-28T09:53:16.974Z,6.87
2022-11-28T09:54:17.484Z,6.86
2022-11-28T09:55:17.105Z,6.83
2022-11-28T09:56:17.447Z,6.85
2022-11-28T09:57:17.972Z,6.93
2022-11-28T09:58:17.883Z,6.86
2022-11-28T09:59:18.502Z,6.92
2022-11-28T10:00:19.369Z,6.9
2022-11-28T10:01:19.867Z,6.89
2022-11-28T10:02:20.525Z,6.96
2022-11-28T10:03:21.084Z,7
2022-11-28T10:04:22.044Z,7
2022-11-28T10:05:22.223Z,7
2022-11-28T10:06:22.670Z,7
2022-11-28T10:07:23.461Z,6.93
2022-11-28T10:08:23.674Z,6.85
2022-11-28T10:09:23.894Z,6.85
2022-11-28T10:10:24.511Z,6.87
2022-11-28T10:11:25.837Z,6.86
2022-11-28T10:12:27.055Z,6.92
2022-11-28T10:14:00.222Z,6.83
2022-11-28T10:14:27.701Z,6.87
2022-11-28T10:15:28.917Z,6.87
2022-11-28T10:16:30.245Z,7.03
2022-11-28T10:17:30.433Z,7
2022-11-28T10:18:30.924Z,7.04
2022-11-28T10:20:03.399Z,7.11
2022-11-28T10:20:31.788Z,7.18
2022-11-28T10:21:32.508Z,7.18
2022-11-28T10:22:33.417Z,7.32
2022-11-28T10:23:34.655Z,7.31
2022-11-28T10:24:35.153Z,7.37
2022-11-28T10:25:35.991Z,7.37
2022-11-28T10:26:36.348Z,7.33
2022-11-28T10:27:37.292Z,7.47
2022-11-28T10:28:38.491Z,7.53
2022-11-28T10:29:38.425Z,7.55
2022-11-28T10:30:38.854Z,7.56
2022-11-28T10:31:38.873Z,7.69
2022-11-28T10:32:39.491Z,7.66
2022-11-28T10:33:39.992Z,7.66
2022-11-28T10:34:40.632Z,7.66
2022-11-28T10:35:41.550Z,7.75
2022-11-28T10:36:42.885Z,7.74
2022-11-28T10:37:43.081Z,7.77
2022-11-28T10:38:44.056Z,7.85
2022-11-28T10:39:45.019Z,7.9
2022-11-28T10:40:45.356Z,7.83
2022-11-28T10:41:44.980Z,7.87
2022-11-28T10:42:46.216Z,7.84
2022-11-28T10:43:47.126Z,7.85
2022-11-28T10:44:47.035Z,7.9
2022-11-28T10:45:47.829Z,7.9
2022-11-28T10:46:48.510Z,7.9
2022-11-28T10:47:48.425Z,7.81
2022-11-28T10:48:49.086Z,7.85
2022-11-28T10:49:49.366Z,7.9
2022-11-28T10:50:49.584Z,7.98
2022-11-28T10:51:50.240Z,7.93
2022-11-28T10:52:51.155Z,8.06
2022-11-28T10:53:51.390Z,8.09
2022-11-28T10:54:52.586Z,8.14
2022-11-28T10:55:52.780Z,8.2
2022-11-28T10:56:53.264Z,8.18
2022-11-28T10:57:54.525Z,8.23
2022-11-28T10:58:55.450Z,8.23
2022-11-28T10:59:55.349Z,8.17
2022-11-28T11:00:56.694Z,8.28
2022-11-28T11:01:56.481Z,8.32
2022-11-28T11:02:57.154Z,8.28
2022-11-28T11:03:57.782Z,8.41
2022-11-28T11:04:58.538Z,8.36
2022-11-28T11:05:59.193Z,8.38
2022-11-28T11:07:29.650Z,8.53
2022-11-28T11:08:16.508Z,8.52
2022-11-28T11:09:16.893Z,8.63
2022-11-28T11:10:17.506Z,8.75
2022-11-28T11:11:18.185Z,8.79
2022-11-28T11:12:19.398Z,8.77
2022-11-28T11:13:19.325Z,8.75
2022-11-28T11:14:19.821Z,8.82
2022-11-28T11:15:19.462Z,8.86
2022-11-28T11:16:20.472Z,8.95
2022-11-28T11:17:21.686Z,8.96
2022-11-28T11:18:22.379Z,9.09
2022-11-28T11:19:22.588Z,9.05
2022-11-28T11:20:23.506Z,9.05
2022-11-28T11:21:23.422Z,9.02
2022-11-28T11:22:23.777Z,9.03
2022-11-28T11:23:24.312Z,9.11
2022-11-28T11:24:25.367Z,9.05
2022-11-28T11:25:25.561Z,9.13
2022-11-28T11:26:25.809Z,9.08
2022-11-28T11:27:26.125Z,9.13
2022-11-28T11:28:27.067Z,9.18
2022-11-28T11:29:27.278Z,9.21
2022-11-28T11:30:28.850Z,9.24
2022-11-28T11:31:29.679Z,9.29
2022-11-28T11:32:29.339Z,9.24
2022-11-28T11:33:29.830Z,9.29
2022-11-28T11:34:30.153Z,9.27
2022-11-28T11:35:30.354Z,9.34
2022-11-28T11:36:30.559Z,9.24
2022-11-28T11:37:30.835Z,9.34
2022-11-28T11:38:38.380Z,9.34
2022-11-28T11:39:31.743Z,9.44
2022-11-28T11:40:31.867Z,9.44
2022-11-28T11:41:32.793Z,9.45
2022-11-28T11:42:33.137Z,9.49
2022-11-28T11:43:34.711Z,9.49
2022-11-28T11:44:35.324Z,9.47
2022-11-28T11:45:35.017Z,9.48
2022-11-28T11:46:35.542Z,9.49
2022-11-28T11:47:35.948Z,9.48
2022-11-28T11:48:36.889Z,9.58
2022-11-28T11:49:37.840Z,9.55
2022-11-28T11:50:38.311Z,9.52
2022-11-28T11:51:43.678Z,9.48
2022-11-28T11:52:39.330Z,9.48
2022-11-28T11:53:39.553Z,9.54
2022-11-28T11:54:40.894Z,9.55
2022-11-28T11:55:41.389Z,9.52
2022-11-28T11:56:42.010Z,9.54
2022-11-28T11:57:48.917Z,9.58
2022-11-28T11:58:49.696Z,9.69
2022-11-28T11:59:51.205Z,9.59
2022-11-28T12:00:51.418Z,9.59
2022-11-28T12:01:51.628Z,9.64
2022-11-28T12:02:52.619Z,9.66
2022-11-28T12:03:53.369Z,9.64
2022-11-28T12:04:58.331Z,9.63
2022-11-28T12:06:19.073Z,9.66
2022-11-28T12:06:55.106Z,9.56
2022-11-28T12:07:56.427Z,9.67
2022-11-28T12:08:56.578Z,9.58
2022-11-28T12:10:05.055Z,9.56
2022-11-28T12:10:57.755Z,9.51
2022-11-28T12:11:58.658Z,9.54
2022-11-28T12:12:59.031Z,9.48
2022-11-28T12:14:00.180Z,9.48
2022-11-28T12:15:00.671Z,9.4
2022-11-28T12:16:01.141Z,9.39
2022-11-28T12:17:40.833Z,9.34
2022-11-28T12:18:40.602Z,9.33
2022-11-28T12:19:41.913Z,9.29
2022-11-28T12:20:42.387Z,9.24
2022-11-28T12:21:42.876Z,9.29
2022-11-28T12:22:43.483Z,9.19
2022-11-28T12:23:43.644Z,9.19
2022-11-28T12:24:44.157Z,9.22
2022-11-28T12:25:45.273Z,9.21
2022-11-28T12:26:45.594Z,9.12
2022-11-28T12:27:45.519Z,9.12
2022-11-28T12:28:45.925Z,9
2022-11-28T12:29:46.831Z,8.96
2022-11-28T12:30:50.613Z,9.02
2022-11-28T12:31:48.048Z,8.97
2022-11-28T12:32:48.258Z,8.82
2022-11-28T12:33:48.487Z,8.84
2022-11-28T12:34:48.984Z,8.84
2022-11-28T12:35:49.945Z,8.75
2022-11-28T12:36:49.897Z,8.77
2022-11-28T12:38:15.944Z,8.68
2022-11-28T12:39:04.207Z,8.78
2022-11-28T12:40:04.547Z,8.72
2022-11-28T12:41:04.883Z,8.71
2022-11-28T12:42:06.071Z,8.72
2022-11-28T12:43:06.663Z,8.79
2022-11-28T12:44:06.663Z,8.77
2022-11-28T12:45:08.029Z,8.82
2022-11-28T12:46:07.853Z,8.81
2022-11-28T12:47:08.933Z,8.87
2022-11-28T12:48:09.162Z,8.81
2022-11-28T12:49:10.504Z,8.78
2022-11-28T12:50:10.842Z,8.79
2022-11-28T12:51:11.930Z,8.93
2022-11-28T12:52:12.019Z,8.96
2022-11-28T12:53:11.995Z,8.97
2022-11-28T12:54:13.252Z,8.99
2022-11-28T12:55:13.475Z,8.99
2022-11-28T12:56:14.213Z,8.97
2022-11-28T12:57:14.704Z,9.03
2022-11-28T12:58:14.643Z,9.08
2022-11-28T12:59:14.962Z,9.05
2022-11-28T13:00:15.663Z,9
2022-11-28T13:01:15.570Z,9.11
2022-11-28T13:02:16.785Z,9.09
2022-11-28T13:03:16.984Z,9.13
2022-11-28T13:04:17.045Z,9.12
2022-11-28T13:05:18.259Z,9.09
2022-11-28T13:06:18.453Z,9.12
2022-11-28T13:07:18.825Z,9.12
2022-11-28T13:08:19.366Z,9.12
2022-11-28T13:09:20.494Z,9.05
2022-11-28T13:10:21.722Z,9.03
2022-11-28T13:11:21.687Z,9.11
2022-11-28T13:12:21.930Z,9.05
2022-11-28T13:13:22.840Z,9.09
2022-11-28T13:14:23.030Z,9.12
2022-11-28T13:15:23.282Z,9
2022-11-28T13:16:30.874Z,8.96
2022-11-28T13:17:25.334Z,8.84
2022-11-28T13:18:25.531Z,8.78
2022-11-28T13:19:26.584Z,8.81
2022-11-28T13:20:27.341Z,8.74
2022-11-28T13:21:28.324Z,8.72
2022-11-28T13:22:29.385Z,8.79
2022-11-28T13:23:30.627Z,8.79
2022-11-28T13:24:30.861Z,8.77
2022-11-28T13:25:31.344Z,8.78
2022-11-28T13:26:32.021Z,8.78
2022-11-28T13:27:33.263Z,8.79
2022-11-28T13:28:33.494Z,8.77
2022-11-28T13:29:34.229Z,8.82
2022-11-28T13:30:34.492Z,8.89
2022-11-28T13:31:35.709Z,8.86